createdAt,value
2023-04-19T00:02:13.304Z,102239.34
2023-04-19T00:06:15.108Z,102224.16
2023-04-19T00:10:16.799Z,102227.13
2023-04-19T00:14:18.397Z,102225.56
2023-04-19T00:18:20.090Z,102225.94
2023-04-19T00:22:21.865Z,102213.47
2023-04-19T00:26:23.331Z,102212.75
2023-04-19T00:30:24.763Z,102213.63
2023-04-19T00:34:26.223Z,102209.53
2023-04-19T00:38:27.643Z,102220.94
2023-04-19T00:42:29.099Z,102205.81
2023-04-19T00:46:30.865Z,102207.16
2023-04-19T00:50:32.349Z,102207.03
2023-04-19T00:54:34.135Z,102211.59
2023-04-19T00:58:37.691Z,102211.31
2023-04-19T01:02:39.225Z,102209.00
2023-04-19T01:06:41.908Z,102209.97
2023-04-19T01:10:43.319Z,102211.00
2023-04-19T01:14:44.725Z,102209.97
2023-04-19T01:18:46.172Z,102197.34
2023-04-19T01:22:47.614Z,102204.28
2023-04-19T01:26:49.026Z,102210.97
2023-04-19T01:30:54.542Z,102210.09
2023-04-19T01:34:56.043Z,102205.00
2023-04-19T01:38:57.505Z,102209.00
2023-04-19T01:42:58.976Z,102210.59
2023-04-19T01:47:00.581Z,102211.94
2023-04-19T01:51:02.122Z,102208.16
2023-04-19T01:55:05.315Z,102197.84
2023-04-19T01:59:06.725Z,102197.03
2023-04-19T02:03:08.294Z,102189.84
2023-04-19T02:07:09.846Z,102195.25
2023-04-19T02:11:14.479Z,102193.09
2023-04-19T02:15:15.902Z,102187.94
2023-04-19T02:19:17.970Z,102191.41
2023-04-19T02:23:19.380Z,102186.38
2023-04-19T02:27:20.839Z,102186.53
2023-04-19T02:31:22.681Z,102187.13
2023-04-19T02:35:24.152Z,102183.25
2023-04-19T02:39:25.667Z,102187.66
2023-04-19T02:43:27.216Z,102182.28
2023-04-19T02:47:28.723Z,102170.06
2023-04-19T02:51:30.698Z,102171.19
2023-04-19T02:55:32.361Z,102165.38
2023-04-19T02:59:33.825Z,102169.81
2023-04-19T03:03:35.459Z,102161.56
2023-04-19T03:07:37.116Z,102161.66
2023-04-19T03:11:38.670Z,102151.50
2023-04-19T03:15:40.237Z,102147.91
2023-04-19T03:19:41.730Z,102144.88
2023-04-19T03:23:43.156Z,102144.97
2023-04-19T03:27:45.541Z,102145.19
2023-04-19T03:31:47.818Z,102141.34
2023-04-19T03:35:49.237Z,102141.97
2023-04-19T03:39:50.643Z,102130.50
2023-04-19T03:43:52.447Z,102129.97
2023-04-19T03:47:53.872Z,102127.88
2023-04-19T03:51:55.367Z,102126.97
2023-04-19T03:55:56.799Z,102130.31
2023-04-19T03:59:58.398Z,102129.25
2023-04-19T04:04:02.310Z,102126.31
2023-04-19T04:08:05.611Z,102124.56
2023-04-19T04:12:07.162Z,102121.81
2023-04-19T04:16:08.789Z,102119.72
2023-04-19T04:20:11.835Z,102117.78
2023-04-19T04:24:13.853Z,102125.72
2023-04-19T04:28:15.825Z,102117.25
2023-04-19T04:32:18.078Z,102118.34
2023-04-19T04:36:20.491Z,102111.53
2023-04-19T04:40:22.108Z,102115.00
2023-04-19T04:44:24.742Z,102111.72
2023-04-19T04:48:26.487Z,102107.03
2023-04-19T04:52:28.378Z,102103.75
2023-04-19T04:56:30.896Z,102104.28
2023-04-19T05:00:32.753Z,102098.78
2023-04-19T05:04:34.260Z,102092.44
2023-04-19T05:08:35.729Z,102088.78
2023-04-19T05:12:38.030Z,102085.47
2023-04-19T05:16:39.917Z,102090.25
2023-04-19T05:20:41.560Z,102083.31
2023-04-19T05:24:43.093Z,102081.59
2023-04-19T05:28:44.962Z,102077.91
2023-04-19T05:32:46.906Z,102078.75
2023-04-19T05:36:48.364Z,102070.66
2023-04-19T05:40:49.768Z,102068.78
2023-04-19T05:44:51.253Z,102064.00
2023-04-19T05:48:53.016Z,102061.66
2023-04-19T05:52:54.488Z,102069.41
2023-04-19T05:56:56.179Z,102059.13
2023-04-19T06:00:57.601Z,102062.53
2023-04-19T06:05:02.423Z,102069.94
2023-04-19T06:09:07.237Z,102056.97
2023-04-19T06:13:08.710Z,102054.50
2023-04-19T06:17:10.192Z,102053.28
2023-04-19T06:21:11.688Z,102048.16
2023-04-19T06:25:13.347Z,102051.78
2023-04-19T06:29:14.777Z,102039.34
2023-04-19T06:33:16.441Z,102039.88
2023-04-19T06:37:17.911Z,102034.81
2023-04-19T06:41:19.406Z,102032.47
2023-04-19T06:45:21.079Z,102027.94
2023-04-19T06:49:22.709Z,102028.34
2023-04-19T06:53:24.453Z,102029.72
2023-04-19T06:57:26.049Z,102018.06
2023-04-19T07:01:27.527Z,102016.97
2023-04-19T07:05:30.639Z,102019.72
2023-04-19T07:09:32.209Z,102002.31
2023-04-19T07:13:33.626Z,102004.13
2023-04-19T07:17:36.631Z,101999.81
2023-04-19T07:21:39.456Z,101995.19
2023-04-19T07:25:40.930Z,101989.53
2023-04-19T07:29:42.340Z,101986.81
2023-04-19T07:33:44.424Z,101984.38
2023-04-19T07:37:45.910Z,101981.09
2023-04-19T07:41:47.447Z,101981.59
2023-04-19T07:45:48.942Z,101975.00
2023-04-19T07:49:53.624Z,101967.09
2023-04-19T07:53:55.134Z,101966.94
2023-04-19T07:57:56.594Z,101959.50
2023-04-19T08:01:58.137Z,101957.41
2023-04-19T08:06:07.134Z,101958.22
2023-04-19T08:10:09.615Z,101960.31
2023-04-19T08:14:27.110Z,101951.03
2023-04-19T08:18:36.155Z,101936.84
2023-04-19T08:22:39.081Z,101939.59
2023-04-19T08:26:40.810Z,101941.31
2023-04-19T08:30:42.332Z,101940.78
2023-04-19T08:34:43.832Z,101935.81
2023-04-19T08:38:49.171Z,101931.78
2023-04-19T08:42:57.065Z,101923.78
2023-04-19T08:47:01.452Z,101923.63
2023-04-19T08:51:05.765Z,101919.19
2023-04-19T08:55:08.748Z,101924.59
2023-04-19T08:59:18.014Z,101918.09
2023-04-19T09:03:19.971Z,101922.84
2023-04-19T09:07:26.499Z,101906.44
2023-04-19T09:11:40.902Z,101894.78
2023-04-19T09:15:44.568Z,101894.78
2023-04-19T09:19:50.315Z,101888.09
2023-04-19T09:23:51.926Z,101879.50
2023-04-19T09:27:54.863Z,101864.31
2023-04-19T09:31:58.812Z,101875.00
2023-04-19T09:36:03.237Z,101861.53
2023-04-19T09:40:25.034Z,101864.88
2023-04-19T09:48:31.086Z,101868.84
2023-04-19T09:52:34.800Z,101869.78
2023-04-19T09:56:37.077Z,101850.84
2023-04-19T10:00:47.783Z,101855.97
2023-04-19T10:09:02.515Z,101836.13
2023-04-19T10:13:19.317Z,101831.13
2023-04-19T10:17:23.094Z,101842.53
2023-04-19T10:21:27.353Z,101840.31
2023-04-19T10:25:30.694Z,101838.38
2023-04-19T10:29:57.762Z,101820.94
2023-04-19T10:33:59.322Z,101813.66
2023-04-19T10:38:12.844Z,101801.94
2023-04-19T10:42:14.313Z,101812.91
2023-04-19T10:46:16.798Z,101799.19
2023-04-19T10:50:18.602Z,101786.81
2023-04-19T10:54:31.192Z,101788.03
2023-04-19T10:59:01.882Z,101796.16
2023-04-19T11:03:44.812Z,101797.06
2023-04-19T11:07:46.352Z,101801.34
2023-04-19T11:11:47.821Z,101791.09
2023-04-19T11:15:49.325Z,101787.59
2023-04-19T11:20:07.148Z,101784.47
2023-04-19T11:24:14.549Z,101780.81
2023-04-19T11:28:17.512Z,101779.03
2023-04-19T11:32:21.475Z,101766.09
2023-04-19T11:36:22.960Z,101764.38
2023-04-19T11:40:28.300Z,101765.97
2023-04-19T11:44:30.775Z,101754.59
2023-04-19T11:48:32.745Z,101760.94
2023-04-19T11:52:35.481Z,101760.69
2023-04-19T11:56:36.961Z,101754.25
2023-04-19T12:00:38.583Z,101746.28
2023-04-19T12:04:41.093Z,101744.63
2023-04-19T12:08:48.222Z,101744.94
2023-04-19T12:12:49.619Z,101733.69
2023-04-19T12:17:10.800Z,101740.78
2023-04-19T12:21:25.309Z,101711.31
2023-04-19T12:25:31.276Z,101719.63
2023-04-19T12:29:33.885Z,101723.19
2023-04-19T12:33:35.404Z,101725.31
2023-04-19T12:37:37.044Z,101723.88
2023-04-19T12:41:38.646Z,101720.34
2023-04-19T12:45:40.126Z,101720.03
2023-04-19T12:49:41.624Z,101701.72
2023-04-19T12:53:48.033Z,101694.28
2023-04-19T12:57:49.587Z,101683.78
2023-04-19T13:01:51.106Z,101677.44
2023-04-19T13:05:52.522Z,101675.22
2023-04-19T13:09:56.532Z,101679.28
2023-04-19T13:13:58.398Z,101671.84
2023-04-19T13:17:59.843Z,101663.88
2023-04-19T13:22:01.347Z,101656.66
2023-04-19T13:26:02.801Z,101655.53
2023-04-19T13:30:04.680Z,101648.22
2023-04-19T13:34:06.307Z,101636.94
2023-04-19T13:38:07.778Z,101631.63
2023-04-19T13:42:09.720Z,101625.44
2023-04-19T13:46:11.473Z,101622.84
2023-04-19T13:50:13.648Z,101621.63
2023-04-19T13:54:17.558Z,101625.69
2023-04-19T13:58:19.506Z,101621.25
2023-04-19T14:02:21.255Z,101617.81
2023-04-19T14:06:22.912Z,101612.06
2023-04-19T14:10:24.433Z,101615.41
2023-04-19T14:14:26.457Z,101618.53
2023-04-19T14:18:27.943Z,101630.56
2023-04-19T14:22:29.373Z,101632.03
2023-04-19T14:26:30.835Z,101616.53
2023-04-19T14:30:32.335Z,101614.75
2023-04-19T14:34:33.864Z,101603.69
2023-04-19T14:38:35.488Z,101604.47
2023-04-19T14:42:36.928Z,101592.09
2023-04-19T14:46:38.387Z,101595.28
2023-04-19T14:50:39.785Z,101592.31
2023-04-19T14:54:41.838Z,101586.63
2023-04-19T14:58:43.296Z,101569.31
2023-04-19T18:25:56.232Z,101594.97
2023-04-19T18:29:57.679Z,101593.28
2023-04-19T18:33:59.841Z,101601.66
2023-04-19T18:38:01.623Z,101595.63
2023-04-19T18:42:03.229Z,101587.31
2023-04-19T18:46:04.768Z,101597.84
2023-04-19T18:50:08.406Z,101590.56
2023-04-19T18:54:09.884Z,101595.97
2023-04-19T18:58:11.924Z,101597.47
2023-04-19T19:02:13.431Z,101599.94
2023-04-19T19:06:15.097Z,101592.16
2023-04-19T19:10:20.904Z,101595.72
2023-04-19T19:14:24.239Z,101605.06
2023-04-19T19:18:27.682Z,101607.25
2023-04-19T19:22:29.301Z,101613.59
2023-04-19T19:26:31.363Z,101614.91
2023-04-19T19:30:33.831Z,101617.66
2023-04-19T19:34:47.531Z,101617.63
2023-04-19T19:38:55.883Z,101607.53
2023-04-19T19:42:57.394Z,101619.69
2023-04-19T19:46:58.970Z,101618.63
2023-04-19T19:51:31.327Z,101616.50
2023-04-19T19:55:23.604Z,101621.16
2023-04-19T19:59:30.280Z,101624.47
2023-04-19T20:03:37.359Z,101635.34
2023-04-19T20:08:00.530Z,101628.84
2023-04-19T20:12:02.570Z,101623.97
2023-04-19T20:16:04.172Z,101630.47
2023-04-19T20:20:08.820Z,101633.66
2023-04-19T20:24:10.314Z,101642.94
2023-04-19T20:28:12.488Z,101643.94
2023-04-19T20:32:14.086Z,101629.22
2023-04-19T20:36:16.331Z,101625.22
2023-04-19T20:40:18.486Z,101628.09
2023-04-19T20:44:22.971Z,101625.34
2023-04-19T20:48:24.490Z,101625.00
2023-04-19T20:52:26.100Z,101620.72
2023-04-19T20:56:27.664Z,101625.94
2023-04-19T21:00:29.140Z,101622.25
2023-04-19T21:04:30.793Z,101616.06
2023-04-19T21:08:32.285Z,101617.19
2023-04-19T21:12:34.657Z,101618.31
2023-04-19T21:16:36.208Z,101619.19
2023-04-19T21:20:37.939Z,101631.47
2023-04-19T21:24:42.186Z,101631.22
2023-04-19T21:28:43.778Z,101620.19
2023-04-19T21:32:45.388Z,101617.50
2023-04-19T21:36:46.878Z,101624.06
2023-04-19T21:40:49.413Z,101628.34
2023-04-19T21:44:50.891Z,101637.75
2023-04-19T21:48:54.377Z,101628.84
2023-04-19T21:52:57.332Z,101628.78
2023-04-19T21:56:59.366Z,101641.81
2023-04-19T22:01:01.138Z,101640.88
2023-04-19T22:05:04.869Z,101644.16
2023-04-19T22:09:06.917Z,101646.81
2023-04-19T22:13:08.660Z,101641.41
2023-04-19T22:17:16.397Z,101644.06
2023-04-19T22:21:17.822Z,101654.06
2023-04-19T22:25:19.350Z,101642.00
2023-04-19T22:29:20.992Z,101638.00
2023-04-19T22:33:22.454Z,101634.13
2023-04-19T22:37:24.172Z,101625.41
2023-04-19T22:41:25.688Z,101621.72
2023-04-19T22:45:27.190Z,101614.69
2023-04-19T22:49:29.693Z,101633.97
2023-04-19T22:53:31.168Z,101628.56
2023-04-19T22:57:32.663Z,101623.56
2023-04-19T23:01:34.906Z,101622.00
2023-04-19T23:05:36.389Z,101617.09
2023-04-19T23:09:39.186Z,101620.84
2023-04-19T23:13:43.957Z,101626.03
2023-04-19T23:17:45.403Z,101623.19
2023-04-19T23:21:46.903Z,101617.75
2023-04-19T23:25:48.687Z,101616.88
2023-04-19T23:29:50.186Z,101617.81
2023-04-19T23:33:51.618Z,101606.19
2023-04-19T23:37:53.129Z,101609.69
2023-04-19T23:41:54.613Z,101604.25
2023-04-19T23:45:57.222Z,101602.09
2023-04-19T23:49:58.686Z,101597.59
2023-04-19T23:54:00.259Z,101598.28
2023-04-19T23:58:01.656Z,101597.16
